sensor_id;sensor_type;location;lat;lon;timestamp;pressure;altitude;pressure_sealevel;temperature;humidity
19676;BME280;39539;52.202;9.876;2024-02-21T00:02:03;101289.88;;;8.14;100.00
19676;BME280;39539;52.202;9.876;2024-02-21T00:04:28;101288.09;;;8.06;100.00
19676;BME280;39539;52.202;9.876;2024-02-21T00:06:53;101285.38;;;8.15;100.00
19676;BME280;39539;52.202;9.876;2024-02-21T00:09:19;101300.09;;;8.17;100.00
19676;BME280;39539;52.202;9.876;2024-02-21T00:11:45;101274.78;;;8.15;100.00
19676;BME280;39539;52.202;9.876;2024-02-21T00:14:10;101268.56;;;8.07;100.00
19676;BME280;39539;52.202;9.876;2024-02-21T00:16:36;101269.56;;;8.06;100.00
19676;BME280;39539;52.202;9.876;2024-02-21T00:19:01;101273.97;;;8.14;100.00
19676;BME280;39539;52.202;9.876;2024-02-21T00:21:26;101285.38;;;8.15;100.00
19676;BME280;39539;52.202;9.876;2024-02-21T00:23:52;101265.09;;;8.07;100.00
19676;BME280;39539;52.202;9.876;2024-02-21T00:26:17;101253.41;;;8.01;100.00
19676;BME280;39539;52.202;9.876;2024-02-21T00:28:43;101268.88;;;8.13;100.00
19676;BME280;39539;52.202;9.876;2024-02-21T00:31:08;101250.56;;;8.03;100.00
19676;BME280;39539;52.202;9.876;2024-02-21T00:33:34;101262.56;;;8.14;100.00
19676;BME280;39539;52.202;9.876;2024-02-21T00:35:59;101259.91;;;8.14;100.00
19676;BME280;39539;52.202;9.876;2024-02-21T00:38:24;101262.22;;;8.17;100.00
19676;BME280;39539;52.202;9.876;2024-02-21T00:40:50;101258.56;;;8.18;100.00
19676;BME280;39539;52.202;9.876;2024-02-21T00:43:15;101240.44;;;8.06;100.00
19676;BME280;39539;52.202;9.876;2024-02-21T00:45:40;101252.13;;;8.12;100.00
19676;BME280;39539;52.202;9.876;2024-02-21T00:48:06;101251.97;;;8.14;100.00
19676;BME280;39539;52.202;9.876;2024-02-21T00:50:32;101258.28;;;8.13;100.00
19676;BME280;39539;52.202;9.876;2024-02-21T00:52:57;101251.69;;;8.08;100.00
19676;BME280;39539;52.202;9.876;2024-02-21T00:55:23;101255.63;;;8.13;100.00
19676;BME280;39539;52.202;9.876;2024-02-21T00:57:48;101257.28;;;8.14;100.00
19676;BME280;39539;52.202;9.876;2024-02-21T01:00:13;101250.34;;;8.13;100.00
19676;BME280;39539;52.202;9.876;2024-02-21T01:02:39;101244.69;;;8.16;100.00
19676;BME280;39539;52.202;9.876;2024-02-21T01:05:04;101248.97;;;8.17;100.00
19676;BME280;39539;52.202;9.876;2024-02-21T01:07:30;101236.38;;;8.19;100.00
19676;BME280;39539;52.202;9.876;2024-02-21T01:09:55;101241.03;;;8.17;100.00
19676;BME280;39539;52.202;9.876;2024-02-21T01:12:21;101236.38;;;8.19;100.00
19676;BME280;39539;52.202;9.876;2024-02-21T01:14:46;101222.66;;;8.15;100.00
19676;BME280;39539;52.202;9.876;2024-02-21T01:17:12;101215.72;;;8.14;100.00
19676;BME280;39539;52.202;9.876;2024-02-21T01:19:37;101222.13;;;8.20;100.00
19676;BME280;39539;52.202;9.876;2024-02-21T01:22:03;101221.69;;;8.16;100.00
19676;BME280;39539;52.202;9.876;2024-02-21T01:24:29;101220.19;;;8.14;100.00
19676;BME280;39539;52.202;9.876;2024-02-21T01:26:54;101214.63;;;8.08;100.00
19676;BME280;39539;52.202;9.876;2024-02-21T01:29:20;101217.84;;;8.19;100.00
19676;BME280;39539;52.202;9.876;2024-02-21T01:31:45;101195.38;;;8.15;100.00
19676;BME280;39539;52.202;9.876;2024-02-21T01:34:10;101212.91;;;8.16;100.00
19676;BME280;39539;52.202;9.876;2024-02-21T01:36:36;101205.25;;;8.21;100.00
19676;BME280;39539;52.202;9.876;2024-02-21T01:39:01;101208.72;;;8.21;100.00
19676;BME280;39539;52.202;9.876;2024-02-21T01:41:29;101200.59;;;8.23;100.00
19676;BME280;39539;52.202;9.876;2024-02-21T01:43:55;101177.03;;;8.13;100.00
19676;BME280;39539;52.202;9.876;2024-02-21T01:46:20;101195.31;;;8.23;100.00
19676;BME280;39539;52.202;9.876;2024-02-21T01:48:46;101182.78;;;8.17;100.00
19676;BME280;39539;52.202;9.876;2024-02-21T01:51:11;101178.00;;;8.12;100.00
19676;BME280;39539;52.202;9.876;2024-02-21T01:53:42;101191.38;;;8.19;100.00
19676;BME280;39539;52.202;9.876;2024-02-21T01:56:08;101196.97;;;8.24;100.00
19676;BME280;39539;52.202;9.876;2024-02-21T01:58:36;101199.78;;;8.22;100.00
19676;BME280;39539;52.202;9.876;2024-02-21T02:01:02;101194.66;;;8.21;100.00
19676;BME280;39539;52.202;9.876;2024-02-21T02:03:28;101189.66;;;8.26;100.00
19676;BME280;39539;52.202;9.876;2024-02-21T02:05:55;101189.47;;;8.27;100.00
19676;BME280;39539;52.202;9.876;2024-02-21T02:08:20;101180.06;;;8.25;100.00
19676;BME280;39539;52.202;9.876;2024-02-21T02:10:47;101175.78;;;8.24;100.00
19676;BME280;39539;52.202;9.876;2024-02-21T02:13:12;101168.66;;;8.24;100.00
19676;BME280;39539;52.202;9.876;2024-02-21T02:18:04;101156.75;;;8.20;100.00
19676;BME280;39539;52.202;9.876;2024-02-21T02:20:30;101129.16;;;8.15;100.00
19676;BME280;39539;52.202;9.876;2024-02-21T02:22:55;101117.31;;;8.10;100.00
19676;BME280;39539;52.202;9.876;2024-02-21T02:25:20;101145.81;;;8.23;100.00
19676;BME280;39539;52.202;9.876;2024-02-21T02:27:46;101146.66;;;8.24;100.00
19676;BME280;39539;52.202;9.876;2024-02-21T02:30:12;101129.47;;;8.20;100.00
19676;BME280;39539;52.202;9.876;2024-02-21T02:32:37;101112.66;;;8.13;100.00
19676;BME280;39539;52.202;9.876;2024-02-21T02:35:03;101142.16;;;8.24;100.00
19676;BME280;39539;52.202;9.876;2024-02-21T02:37:28;101121.16;;;8.23;100.00
19676;BME280;39539;52.202;9.876;2024-02-21T02:39:53;101124.91;;;8.28;100.00
19676;BME280;39539;52.202;9.876;2024-02-21T02:42:19;101124.75;;;8.30;100.00
19676;BME280;39539;52.202;9.876;2024-02-21T02:44:44;101106.28;;;8.22;100.00
19676;BME280;39539;52.202;9.876;2024-02-21T02:47:09;101105.56;;;8.28;100.00
19676;BME280;39539;52.202;9.876;2024-02-21T02:49:35;101104.28;;;8.24;100.00
19676;BME280;39539;52.202;9.876;2024-02-21T02:52:00;101112.22;;;8.24;100.00
19676;BME280;39539;52.202;9.876;2024-02-21T02:54:25;101081.22;;;8.09;100.00
19676;BME280;39539;52.202;9.876;2024-02-21T02:56:50;101084.81;;;8.17;100.00
19676;BME280;39539;52.202;9.876;2024-02-21T02:59:16;101087.44;;;8.17;100.00
19676;BME280;39539;52.202;9.876;2024-02-21T03:01:42;101080.88;;;8.13;100.00
19676;BME280;39539;52.202;9.876;2024-02-21T03:04:07;101089.22;;;8.24;100.00
19676;BME280;39539;52.202;9.876;2024-02-21T03:06:32;101091.22;;;8.22;100.00
19676;BME280;39539;52.202;9.876;2024-02-21T03:08:58;101091.38;;;8.21;100.00
19676;BME280;39539;52.202;9.876;2024-02-21T03:11:25;101085.47;;;8.19;100.00
19676;BME280;39539;52.202;9.876;2024-02-21T03:13:54;101088.72;;;8.21;100.00
19676;BME280;39539;52.202;9.876;2024-02-21T03:16:20;101072.66;;;8.22;100.00
19676;BME280;39539;52.202;9.876;2024-02-21T03:18:46;101074.13;;;8.25;100.00
19676;BME280;39539;52.202;9.876;2024-02-21T03:21:11;101068.84;;;8.25;100.00
19676;BME280;39539;52.202;9.876;2024-02-21T03:23:37;101065.00;;;8.27;100.00
19676;BME280;39539;52.202;9.876;2024-02-21T03:26:02;101050.94;;;8.27;100.00
19676;BME280;39539;52.202;9.876;2024-02-21T03:28:27;101023.25;;;8.15;100.00
19676;BME280;39539;52.202;9.876;2024-02-21T03:30:53;101028.00;;;8.19;100.00
19676;BME280;39539;52.202;9.876;2024-02-21T03:33:18;101017.88;;;8.23;100.00
19676;BME280;39539;52.202;9.876;2024-02-21T03:35:45;101019.78;;;8.29;100.00
19676;BME280;39539;52.202;9.876;2024-02-21T03:38:10;101020.06;;;8.19;100.00
19676;BME280;39539;52.202;9.876;2024-02-21T03:40:35;100993.75;;;8.18;100.00
19676;BME280;39539;52.202;9.876;2024-02-21T03:43:01;100993.50;;;8.13;100.00
19676;BME280;39539;52.202;9.876;2024-02-21T03:45:26;100967.38;;;8.09;100.00
19676;BME280;39539;52.202;9.876;2024-02-21T03:47:51;100972.41;;;8.04;100.00
19676;BME280;39539;52.202;9.876;2024-02-21T03:50:17;100981.81;;;8.07;100.00
19676;BME280;39539;52.202;9.876;2024-02-21T03:52:42;100982.72;;;7.99;100.00
19676;BME280;39539;52.202;9.876;2024-02-21T03:55:07;100985.66;;;8.04;100.00
19676;BME280;39539;52.202;9.876;2024-02-21T03:57:33;100976.78;;;7.97;100.00
19676;BME280;39539;52.202;9.876;2024-02-21T03:59:58;100979.72;;;8.02;100.00
19676;BME280;39539;52.202;9.876;2024-02-21T04:02:23;100964.84;;;8.01;100.00
19676;BME280;39539;52.202;9.876;2024-02-21T04:04:49;100951.50;;;7.95;100.00
19676;BME280;39539;52.202;9.876;2024-02-21T04:07:14;100975.16;;;7.96;100.00
19676;BME280;39539;52.202;9.876;2024-02-21T04:09:40;100972.22;;;7.91;100.00
19676;BME280;39539;52.202;9.876;2024-02-21T04:12:07;100981.09;;;7.98;100.00
19676;BME280;39539;52.202;9.876;2024-02-21T04:14:32;100982.53;;;8.01;100.00
19676;BME280;39539;52.202;9.876;2024-02-21T04:16:58;100972.78;;;8.01;100.00
19676;BME280;39539;52.202;9.876;2024-02-21T04:19:23;100983.00;;;8.04;100.00
19676;BME280;39539;52.202;9.876;2024-02-21T04:21:48;100994.50;;;8.12;100.00
19676;BME280;39539;52.202;9.876;2024-02-21T04:24:14;100992.06;;;8.10;100.00
19676;BME280;39539;52.202;9.876;2024-02-21T04:26:39;101001.25;;;8.14;100.00
19676;BME280;39539;52.202;9.876;2024-02-21T04:29:04;100989.94;;;8.05;100.00
19676;BME280;39539;52.202;9.876;2024-02-21T04:31:32;100998.16;;;8.10;100.00
19676;BME280;39539;52.202;9.876;2024-02-21T04:33:57;101006.38;;;8.16;100.00
19676;BME280;39539;52.202;9.876;2024-02-21T04:36:22;101001.91;;;8.16;100.00
19676;BME280;39539;52.202;9.876;2024-02-21T04:38:48;101015.59;;;8.20;100.00
19676;BME280;39539;52.202;9.876;2024-02-21T04:41:15;101016.78;;;8.17;100.00
19676;BME280;39539;52.202;9.876;2024-02-21T04:43:40;101017.06;;;8.22;100.00
19676;BME280;39539;52.202;9.876;2024-02-21T04:46:06;101009.28;;;8.21;100.00
19676;BME280;39539;52.202;9.876;2024-02-21T04:48:31;101008.47;;;8.20;100.00
19676;BME280;39539;52.202;9.876;2024-02-21T04:50:57;101009.94;;;8.23;100.00
19676;BME280;39539;52.202;9.876;2024-02-21T04:53:22;101006.84;;;8.19;100.00
19676;BME280;39539;52.202;9.876;2024-02-21T04:55:47;101011.13;;;8.20;100.00
19676;BME280;39539;52.202;9.876;2024-02-21T04:58:13;101010.59;;;8.25;100.00
19676;BME280;39539;52.202;9.876;2024-02-21T05:00:38;101003.28;;;8.27;100.00
19676;BME280;39539;52.202;9.876;2024-02-21T05:03:04;101011.22;;;8.27;100.00
19676;BME280;39539;52.202;9.876;2024-02-21T05:05:29;101014.31;;;8.30;100.00
19676;BME280;39539;52.202;9.876;2024-02-21T05:07:54;100999.34;;;8.23;100.00
19676;BME280;39539;52.202;9.876;2024-02-21T05:10:20;101012.69;;;8.29;100.00
19676;BME280;39539;52.202;9.876;2024-02-21T05:12:45;100995.34;;;8.27;100.00
19676;BME280;39539;52.202;9.876;2024-02-21T05:15:11;101013.50;;;8.30;100.00
19676;BME280;39539;52.202;9.876;2024-02-21T05:17:36;101014.78;;;8.34;100.00
19676;BME280;39539;52.202;9.876;2024-02-21T05:20:01;101002.09;;;8.29;100.00
19676;BME280;39539;52.202;9.876;2024-02-21T05:22:27;100994.97;;;8.30;100.00
19676;BME280;39539;52.202;9.876;2024-02-21T05:24:52;101009.09;;;8.37;100.00
19676;BME280;39539;52.202;9.876;2024-02-21T05:27:18;100998.16;;;8.25;100.00
19676;BME280;39539;52.202;9.876;2024-02-21T05:29:43;100992.41;;;8.22;100.00
19676;BME280;39539;52.202;9.876;2024-02-21T05:32:09;100990.28;;;8.32;100.00
19676;BME280;39539;52.202;9.876;2024-02-21T05:34:34;100990.28;;;8.32;100.00
19676;BME280;39539;52.202;9.876;2024-02-21T05:37:00;100986.00;;;8.31;100.00
19676;BME280;39539;52.202;9.876;2024-02-21T05:39:26;100981.72;;;8.30;100.00
19676;BME280;39539;52.202;9.876;2024-02-21T05:41:52;100979.25;;;8.28;100.00
19676;BME280;39539;52.202;9.876;2024-02-21T05:44:18;100992.50;;;8.28;100.00
19676;BME280;39539;52.202;9.876;2024-02-21T05:46:44;100990.28;;;8.32;100.00
19676;BME280;39539;52.202;9.876;2024-02-21T05:49:09;100988.22;;;8.27;100.00
19676;BME280;39539;52.202;9.876;2024-02-21T05:51:35;100956.31;;;8.21;100.00
19676;BME280;39539;52.202;9.876;2024-02-21T05:54:00;100963.56;;;8.27;100.00
19676;BME280;39539;52.202;9.876;2024-02-21T05:56:26;100963.28;;;8.22;100.00
19676;BME280;39539;52.202;9.876;2024-02-21T05:58:51;100973.50;;;8.25;100.00
19676;BME280;39539;52.202;9.876;2024-02-21T06:01:17;100958.00;;;8.22;100.00
19676;BME280;39539;52.202;9.876;2024-02-21T06:03:43;100952.69;;;8.22;100.00
19676;BME280;39539;52.202;9.876;2024-02-21T06:06:08;100963.94;;;8.24;100.00
19676;BME280;39539;52.202;9.876;2024-02-21T06:08:33;100961.28;;;8.24;100.00
19676;BME280;39539;52.202;9.876;2024-02-21T06:10:59;100951.03;;;8.21;100.00
19676;BME280;39539;52.202;9.876;2024-02-21T06:13:24;100959.63;;;8.23;100.00
19676;BME280;39539;52.202;9.876;2024-02-21T06:15:50;100947.41;;;8.22;100.00
19676;BME280;39539;52.202;9.876;2024-02-21T06:18:20;100948.38;;;8.21;100.00
19676;BME280;39539;52.202;9.876;2024-02-21T06:20:46;100946.75;;;8.20;100.00
19676;BME280;39539;52.202;9.876;2024-02-21T06:23:12;100941.19;;;8.15;100.00
19676;BME280;39539;52.202;9.876;2024-02-21T06:25:38;100950.59;;;8.17;100.00
19676;BME280;39539;52.202;9.876;2024-02-21T06:28:04;100941.56;;;8.12;100.00
19676;BME280;39539;52.202;9.876;2024-02-21T06:30:30;100940.81;;;8.03;100.00
19676;BME280;39539;52.202;9.876;2024-02-21T06:32:55;100949.13;;;8.00;100.00
19676;BME280;39539;52.202;9.876;2024-02-21T06:35:21;100955.06;;;8.02;100.00
19676;BME280;39539;52.202;9.876;2024-02-21T06:37:46;100946.69;;;7.98;100.00
19676;BME280;39539;52.202;9.876;2024-02-21T06:40:16;100947.31;;;8.00;100.00
19676;BME280;39539;52.202;9.876;2024-02-21T06:42:41;100944.56;;;7.94;100.00
19676;BME280;39539;52.202;9.876;2024-02-21T06:45:07;100936.44;;;7.95;100.00
19676;BME280;39539;52.202;9.876;2024-02-21T06:47:32;100932.81;;;7.96;100.00
19676;BME280;39539;52.202;9.876;2024-02-21T06:49:58;100930.44;;;8.01;100.00
19676;BME280;39539;52.202;9.876;2024-02-21T06:52:23;100926.41;;;8.05;100.00
19676;BME280;39539;52.202;9.876;2024-02-21T06:54:50;100918.75;;;8.10;100.00
19676;BME280;39539;52.202;9.876;2024-02-21T06:57:15;100927.56;;;8.18;100.00
19676;BME280;39539;52.202;9.876;2024-02-21T06:59:41;100933.13;;;8.23;100.00
19676;BME280;39539;52.202;9.876;2024-02-21T07:02:07;100936.81;;;8.22;100.00
19676;BME280;39539;52.202;9.876;2024-02-21T07:04:33;100942.38;;;8.27;100.00
19676;BME280;39539;52.202;9.876;2024-02-21T07:06:58;100940.81;;;8.18;100.00
19676;BME280;39539;52.202;9.876;2024-02-21T07:09:23;100949.31;;;8.28;100.00
19676;BME280;39539;52.202;9.876;2024-02-21T07:11:48;100945.09;;;8.33;100.00
19676;BME280;39539;52.202;9.876;2024-02-21T07:14:14;100958.16;;;8.35;100.00
19676;BME280;39539;52.202;9.876;2024-02-21T07:16:40;100952.31;;;8.40;100.00
19676;BME280;39539;52.202;9.876;2024-02-21T07:19:06;100956.63;;;8.41;100.00
19676;BME280;39539;52.202;9.876;2024-02-21T07:21:31;100939.34;;;8.30;100.00
19676;BME280;39539;52.202;9.876;2024-02-21T07:23:57;100957.06;;;8.44;100.00
19676;BME280;39539;52.202;9.876;2024-02-21T07:26:22;100953.41;;;8.45;100.00
19676;BME280;39539;52.202;9.876;2024-02-21T07:28:47;100935.31;;;8.34;100.00
19676;BME280;39539;52.202;9.876;2024-02-21T07:31:13;100932.16;;;8.39;100.00
19676;BME280;39539;52.202;9.876;2024-02-21T07:33:38;100928.56;;;8.46;100.00
19676;BME280;39539;52.202;9.876;2024-02-21T07:36:07;100936.59;;;8.53;100.00
19676;BME280;39539;52.202;9.876;2024-02-21T07:38:33;100930.09;;;8.56;100.00
19676;BME280;39539;52.202;9.876;2024-02-21T07:40:59;100947.53;;;8.65;100.00
19676;BME280;39539;52.202;9.876;2024-02-21T07:43:24;100932.38;;;8.59;100.00
19676;BME280;39539;52.202;9.876;2024-02-21T07:45:51;100931.25;;;8.68;100.00
19676;BME280;39539;52.202;9.876;2024-02-21T07:48:18;100945.50;;;8.67;100.00
19676;BME280;39539;52.202;9.876;2024-02-21T07:50:45;100955.28;;;8.66;100.00
19676;BME280;39539;52.202;9.876;2024-02-21T07:53:10;100953.72;;;8.72;100.00
19676;BME280;39539;52.202;9.876;2024-02-21T07:55:36;100951.31;;;8.77;100.00
19676;BME280;39539;52.202;9.876;2024-02-21T07:58:01;100939.09;;;8.76;100.00
19676;BME280;39539;52.202;9.876;2024-02-21T08:00:26;100949.19;;;8.87;100.00
19676;BME280;39539;52.202;9.876;2024-02-21T08:02:52;100952.34;;;8.97;100.00
19676;BME280;39539;52.202;9.876;2024-02-21T08:05:17;100954.63;;;9.01;100.00
19676;BME280;39539;52.202;9.876;2024-02-21T08:07:43;100956.53;;;9.07;100.00
19676;BME280;39539;52.202;9.876;2024-02-21T08:10:08;100950.84;;;9.10;100.00
19676;BME280;39539;52.202;9.876;2024-02-21T08:12:34;100951.66;;;9.10;100.00
19676;BME280;39539;52.202;9.876;2024-02-21T08:15:00;100930.78;;;9.01;100.00
19676;BME280;39539;52.202;9.876;2024-02-21T08:17:25;100947.78;;;9.13;100.00
19676;BME280;39539;52.202;9.876;2024-02-21T08:19:50;100925.09;;;9.04;100.00
19676;BME280;39539;52.202;9.876;2024-02-21T08:22:16;100946.38;;;9.17;100.00
19676;BME280;39539;52.202;9.876;2024-02-21T08:24:41;100936.41;;;9.19;100.00
19676;BME280;39539;52.202;9.876;2024-02-21T08:27:08;100945.69;;;9.30;100.00
19676;BME280;39539;52.202;9.876;2024-02-21T08:29:33;100946.13;;;9.33;100.00
19676;BME280;39539;52.202;9.876;2024-02-21T08:31:59;100922.63;;;9.30;100.00
19676;BME280;39539;52.202;9.876;2024-02-21T08:34:24;100930.84;;;9.35;100.00
19676;BME280;39539;52.202;9.876;2024-02-21T08:36:50;100931.53;;;9.44;100.00
19676;BME280;39539;52.202;9.876;2024-02-21T08:39:15;100932.03;;;9.54;100.00
19676;BME280;39539;52.202;9.876;2024-02-21T08:41:43;100939.00;;;9.62;100.00
19676;BME280;39539;52.202;9.876;2024-02-21T08:44:09;100914.13;;;9.63;100.00
19676;BME280;39539;52.202;9.876;2024-02-21T08:46:34;100922.28;;;9.68;100.00
19676;BME280;39539;52.202;9.876;2024-02-21T08:48:59;100919.31;;;9.78;100.00
19676;BME280;39539;52.202;9.876;2024-02-21T08:51:25;100921.16;;;9.84;100.00
19676;BME280;39539;52.202;9.876;2024-02-21T08:53:51;100904.28;;;9.98;100.00
19676;BME280;39539;52.202;9.876;2024-02-21T08:56:17;100900.91;;;10.18;100.00
19676;BME280;39539;52.202;9.876;2024-02-21T08:58:43;100893.66;;;10.40;98.42
19676;BME280;39539;52.202;9.876;2024-02-21T09:01:08;100888.34;;;10.46;98.86
19676;BME280;39539;52.202;9.876;2024-02-21T09:03:37;100893.69;;;10.53;96.37
19676;BME280;39539;52.202;9.876;2024-02-21T09:06:04;100891.66;;;10.55;96.22
19676;BME280;39539;52.202;9.876;2024-02-21T09:08:29;100881.81;;;10.42;96.08
19676;BME280;39539;52.202;9.876;2024-02-21T09:10:55;100880.75;;;10.30;95.35
19676;BME280;39539;52.202;9.876;2024-02-21T09:13:20;100878.53;;;10.33;96.44
19676;BME280;39539;52.202;9.876;2024-02-21T09:15:47;100882.94;;;10.26;94.94
19676;BME280;39539;52.202;9.876;2024-02-21T09:18:12;100871.50;;;10.19;92.80
19676;BME280;39539;52.202;9.876;2024-02-21T09:20:38;100862.69;;;10.19;94.36
19676;BME280;39539;52.202;9.876;2024-02-21T09:23:04;100869.22;;;10.16;94.55
19676;BME280;39539;52.202;9.876;2024-02-21T09:25:30;100867.81;;;10.20;95.30
19676;BME280;39539;52.202;9.876;2024-02-21T09:27:59;100860.06;;;10.25;94.15
19676;BME280;39539;52.202;9.876;2024-02-21T09:30:25;100858.88;;;10.28;94.27
19676;BME280;39539;52.202;9.876;2024-02-21T09:32:50;100859.94;;;10.33;94.62
19676;BME280;39539;52.202;9.876;2024-02-21T09:35:15;100863.22;;;10.49;95.33
19676;BME280;39539;52.202;9.876;2024-02-21T09:37:41;100841.78;;;10.57;93.10
19676;BME280;39539;52.202;9.876;2024-02-21T09:40:06;100842.19;;;10.61;89.57
19676;BME280;39539;52.202;9.876;2024-02-21T09:42:40;100845.06;;;10.72;90.74
19676;BME280;39539;52.202;9.876;2024-02-21T09:45:08;100841.16;;;10.95;89.33
19676;BME280;39539;52.202;9.876;2024-02-21T09:50:34;100830.09;;;11.31;87.15
19676;BME280;39539;52.202;9.876;2024-02-21T09:53:02;100821.44;;;11.49;84.90
19676;BME280;39539;52.202;9.876;2024-02-21T09:55:31;100828.56;;;11.68;85.73
19676;BME280;39539;52.202;9.876;2024-02-21T09:58:01;100830.94;;;12.03;85.42
19676;BME280;39539;52.202;9.876;2024-02-21T10:00:26;100820.19;;;12.17;81.44
19676;BME280;39539;52.202;9.876;2024-02-21T10:02:53;100821.78;;;12.24;79.95
19676;BME280;39539;52.202;9.876;2024-02-21T10:05:19;100810.38;;;12.49;81.24
19676;BME280;39539;52.202;9.876;2024-02-21T10:07:44;100805.91;;;12.43;78.26
19676;BME280;39539;52.202;9.876;2024-02-21T10:10:10;100810.94;;;12.51;76.23
19676;BME280;39539;52.202;9.876;2024-02-21T10:12:35;100782.75;;;12.36;77.07
19676;BME280;39539;52.202;9.876;2024-02-21T10:15:04;100785.63;;;12.35;76.94
19676;BME280;39539;52.202;9.876;2024-02-21T10:17:30;100784.56;;;12.11;76.95
19676;BME280;39539;52.202;9.876;2024-02-21T10:20:06;100773.06;;;12.10;79.41
19676;BME280;39539;52.202;9.876;2024-02-21T10:22:32;100763.97;;;12.25;77.91
19676;BME280;39539;52.202;9.876;2024-02-21T10:25:07;100771.44;;;12.41;79.26
19676;BME280;39539;52.202;9.876;2024-02-21T10:27:32;100760.97;;;12.46;77.22
19676;BME280;39539;52.202;9.876;2024-02-21T10:29:58;100752.63;;;12.61;75.63
19676;BME280;39539;52.202;9.876;2024-02-21T10:32:24;100753.16;;;12.70;75.09
19676;BME280;39539;52.202;9.876;2024-02-21T10:35:03;100734.81;;;12.80;75.34
19676;BME280;39539;52.202;9.876;2024-02-21T10:37:30;100737.22;;;12.88;74.39
19676;BME280;39539;52.202;9.876;2024-02-21T10:39:57;100732.25;;;12.92;73.41
19676;BME280;39539;52.202;9.876;2024-02-21T10:42:22;100709.66;;;12.94;74.10
19676;BME280;39539;52.202;9.876;2024-02-21T10:44:50;100703.41;;;13.00;74.66
19676;BME280;39539;52.202;9.876;2024-02-21T10:47:20;100700.59;;;12.77;73.35
19676;BME280;39539;52.202;9.876;2024-02-21T10:49:57;100690.94;;;12.76;73.61
19676;BME280;39539;52.202;9.876;2024-02-21T10:52:37;100685.94;;;12.43;73.22
19676;BME280;39539;52.202;9.876;2024-02-21T10:55:20;100668.28;;;12.42;74.26
19676;BME280;39539;52.202;9.876;2024-02-21T10:57:52;100671.06;;;12.53;74.99
19676;BME280;39539;52.202;9.876;2024-02-21T11:00:19;100663.28;;;12.70;74.90
19676;BME280;39539;52.202;9.876;2024-02-21T11:02:46;100653.69;;;12.69;74.38
19676;BME280;39539;52.202;9.876;2024-02-21T11:05:12;100656.25;;;12.76;73.22
19676;BME280;39539;52.202;9.876;2024-02-21T11:07:39;100654.03;;;12.73;71.70
19676;BME280;39539;52.202;9.876;2024-02-21T11:10:05;100641.75;;;12.72;71.15
19676;BME280;39539;52.202;9.876;2024-02-21T11:12:33;100643.72;;;12.58;70.75
19676;BME280;39539;52.202;9.876;2024-02-21T11:15:08;100631.22;;;12.40;71.78
19676;BME280;39539;52.202;9.876;2024-02-21T11:17:33;100614.69;;;12.31;74.71
19676;BME280;39539;52.202;9.876;2024-02-21T11:19:59;100620.66;;;12.45;74.41
19676;BME280;39539;52.202;9.876;2024-02-21T11:22:41;100612.47;;;12.65;73.85
19676;BME280;39539;52.202;9.876;2024-02-21T11:25:07;100610.19;;;12.69;72.57
19676;BME280;39539;52.202;9.876;2024-02-21T11:27:37;100601.59;;;12.67;74.36
19676;BME280;39539;52.202;9.876;2024-02-21T11:30:06;100594.34;;;12.74;71.65
19676;BME280;39539;52.202;9.876;2024-02-21T11:32:35;100590.03;;;12.73;71.75
19676;BME280;39539;52.202;9.876;2024-02-21T11:35:04;100597.13;;;12.79;71.14
19676;BME280;39539;52.202;9.876;2024-02-21T11:37:34;100579.72;;;12.76;72.52
19676;BME280;39539;52.202;9.876;2024-02-21T11:40:04;100580.47;;;12.84;72.13
19676;BME280;39539;52.202;9.876;2024-02-21T11:42:30;100574.31;;;12.83;71.95
19676;BME280;39539;52.202;9.876;2024-02-21T11:44:56;100574.94;;;12.85;73.82
19676;BME280;39539;52.202;9.876;2024-02-21T11:47:22;100555.19;;;12.86;72.89
19676;BME280;39539;52.202;9.876;2024-02-21T11:49:48;100537.94;;;12.70;70.96
19676;BME280;39539;52.202;9.876;2024-02-21T11:52:17;100544.09;;;12.71;72.14
19676;BME280;39539;52.202;9.876;2024-02-21T11:54:44;100543.38;;;12.64;71.71
19676;BME280;39539;52.202;9.876;2024-02-21T11:57:10;100540.19;;;12.55;71.20
19676;BME280;39539;52.202;9.876;2024-02-21T11:59:40;100529.44;;;12.62;72.38
19676;BME280;39539;52.202;9.876;2024-02-21T12:02:06;100538.75;;;12.89;70.95
19676;BME280;39539;52.202;9.876;2024-02-21T12:04:32;100524.84;;;12.99;71.75
19676;BME280;39539;52.202;9.876;2024-02-21T12:06:58;100513.66;;;13.09;73.24
19676;BME280;39539;52.202;9.876;2024-02-21T12:09:24;100508.66;;;13.12;72.78
19676;BME280;39539;52.202;9.876;2024-02-21T12:12:03;100511.81;;;13.21;71.11
19676;BME280;39539;52.202;9.876;2024-02-21T12:14:31;100497.16;;;13.00;70.40
19676;BME280;39539;52.202;9.876;2024-02-21T12:16:57;100485.53;;;12.94;70.45
19676;BME280;39539;52.202;9.876;2024-02-21T12:19:23;100471.50;;;12.69;71.57
19676;BME280;39539;52.202;9.876;2024-02-21T12:21:49;100468.53;;;12.77;72.11
19676;BME280;39539;52.202;9.876;2024-02-21T12:24:23;100471.25;;;12.89;73.63
19676;BME280;39539;52.202;9.876;2024-02-21T12:26:50;100482.13;;;12.87;73.25
19676;BME280;39539;52.202;9.876;2024-02-21T12:29:18;100470.22;;;13.01;71.04
19676;BME280;39539;52.202;9.876;2024-02-21T12:31:43;100446.91;;;12.97;72.16
19676;BME280;39539;52.202;9.876;2024-02-21T12:34:09;100459.09;;;13.04;71.78
19676;BME280;39539;52.202;9.876;2024-02-21T12:36:44;100455.09;;;13.14;71.42
19676;BME280;39539;52.202;9.876;2024-02-21T12:39:11;100455.75;;;13.09;69.94
19676;BME280;39539;52.202;9.876;2024-02-21T12:41:37;100446.81;;;13.03;71.40
19676;BME280;39539;52.202;9.876;2024-02-21T12:44:08;100437.13;;;12.91;70.57
19676;BME280;39539;52.202;9.876;2024-02-21T12:46:37;100444.31;;;12.90;71.64
19676;BME280;39539;52.202;9.876;2024-02-21T12:49:03;100431.78;;;12.91;74.90
19676;BME280;39539;52.202;9.876;2024-02-21T12:51:31;100440.63;;;12.91;73.46